Linda — OJML — position and weather

sailwx.info

Track history (hours):
 
Tides and Currents Weather Stations Pressure Air Temp Water Temp Dewpoint Dewpoint Depression Visibility Wind Speed Wind Dir Waves Ship Positions

Linda

Last reported at 2017-Feb-25 14:34 UTC. Time now 2017-Feb-25 19:02 UTC.
Position N 55°10' E 011°03'.

Length 141 m; draft 8.7 m.

Type: Ship (hazmat cat A). MMSI: 230984000.

Date/timePositionNaut miles runAvg speedWind from/ knotsBaromVisibWave heightAir tempDewpointWater temp
2017-Feb-25 14:34N 55°10' E 011°03'1413.8
2017-Feb-25 13:33N 54°57' E 010°57'1413.8
2017-Feb-25 12:33N 54°43' E 010°53'1414.1
2017-Feb-25 11:34N 54°35' E 011°13'1414.4
2017-Feb-25 10:33N 54°30' E 011°36'1413.8
2017-Feb-25 09:31N 54°27' E 011°60'1111.4
2017-Feb-25 08:33N 54°34' E 012°14'5814.3
2017-Feb-25 04:30N 55°01' E 013°43'1414.3
2017-Feb-25 03:33N 55°06' E 014°05'1514.5
2017-Feb-25 02:33N 55°16' E 014°23'1514.9
2017-Feb-25 01:33N 55°27' E 014°40'1515.0
2017-Feb-25 00:33N 55°35' E 015°03'1515.2
2017-Feb-24 23:33N 55°43' E 015°26'1515.0
2017-Feb-24 22:33N 55°50' E 015°49'1414.4
2017-Feb-24 21:33N 55°57' E 016°11'1414.3
2017-Feb-24 20:33N 56°05' E 016°33'1414.1
2017-Feb-24 19:33N 56°12' E 016°55'  
2017-Feb-21 15:09N 59°59' E 026°19'915.7
2017-Feb-21 14:33N 60°01' E 026°38'4715.1
2017-Feb-21 11:28N 60°09' E 028°10'1212.8
2017-Feb-21 10:33N 60°04' E 028°30'1614.5
2017-Feb-21 09:27N 60°02' E 029°03'1414.5
2017-Feb-21 08:30N 60°01' E 029°30'6 6.8
2017-Feb-21 07:33N 59°60' E 029°42'1 0.7
2017-Feb-21 06:31N 60°00' E 029°43'0 0.0
2017-Feb-20 21:22N 60°00' E 029°43'0 0.0
2017-Feb-20 20:31N 60°00' E 029°43'0 0.0
2017-Feb-20 09:27N 60°00' E 029°43'5 6.0
2017-Feb-20 08:33N 60°01' E 029°32'4 3.7
2017-Feb-20 07:32N 60°01' E 029°25'0 0.1
2017-Feb-20 04:30N 60°01' E 029°24'7 3.7
2017-Feb-20 02:33N 60°02' E 029°10'9 8.8
2017-Feb-20 01:32N 60°02' E 028°52'10 9.8
2017-Feb-20 00:33N 60°02' E 028°33'1010.2
2017-Feb-19 23:33N 60°07' E 028°15'1312.8
2017-Feb-19 22:33N 60°10' E 027°50'1616.2
2017-Feb-19 21:33N 60°03' E 027°21'1916.5
2017-Feb-19 20:25N 59°59' E 026°44'  
2017-Feb-17 16:22N 55°59' E 016°31'1315.7
2017-Feb-17 15:33N 55°53' E 016°11'1615.7
2017-Feb-17 14:33N 55°45' E 015°47'1615.7
2017-Feb-17 13:33N 55°37' E 015°23'1615.6
2017-Feb-17 12:33N 55°30' E 014°58'1615.7
2017-Feb-17 11:33N 55°21' E 014°36'1615.8
2017-Feb-17 10:33N 55°08' E 014°19'1615.9
2017-Feb-17 09:33N 54°58' E 013°57'3316.6
2017-Feb-17 07:33N 54°46' E 013°03'3316.4
2017-Feb-17 05:33N 54°29' E 012°15'2115.4
2017-Feb-17 04:13N 54°27' E 011°40'1217.0
2017-Feb-17 03:30N 54°32' E 011°21'1616.6
2017-Feb-17 02:33N 54°34' E 010°54'1616.3
2017-Feb-17 01:33N 54°31' E 010°27'41 6.6
2017-Feb-16 19:25N 54°10' E 009°26'7 6.6
2017-Feb-16 18:23N 54°05' E 009°19'7 8.2
2017-Feb-16 17:33N 53°59' E 009°16'7 6.6
2017-Feb-16 16:33N 53°54' E 009°09'3 2.7
2017-Feb-16 15:34N 53°52' E 009°05'1514.6
2017-Feb-16 14:33N 53°55' E 008°40'7417.5
2017-Feb-16 10:18N 53°46' E 006°35'8317.4
2017-Feb-16 05:32N 53°09' E 004°31'1717.5
2017-Feb-16 04:33N 52°54' E 004°18'1717.0
2017-Feb-16 03:33N 52°40' E 004°01'1616.4
2017-Feb-16 02:33N 52°25' E 003°52'1616.5
2017-Feb-16 01:34N 52°08' E 003°55'1212.2
2017-Feb-16 00:33N 51°59' E 004°07'1212.0
2017-Feb-15 23:33N 51°53' E 004°24'1 0.9
2017-Feb-15 22:31N 51°53' E 004°25'0 0.0
2017-Feb-15 21:34N 51°53' E 004°25'0 0.0
2017-Feb-15 20:34N 51°53' E 004°25'0 0.0
2017-Feb-15 19:34N 51°53' E 004°25'0 0.0
2017-Feb-15 18:34N 51°53' E 004°25'0 0.0
2017-Feb-15 17:34N 51°53' E 004°25'0 0.0
2017-Feb-15 16:34N 51°53' E 004°25'0 0.0
2017-Feb-15 15:34N 51°53' E 004°25'  
Track history (hours):
 
Tides and Currents Weather Stations Pressure Air Temp Water Temp Dewpoint Dewpoint Depression Visibility Wind Speed Wind Dir Waves Ship Positions

Linda

Last reported at 2017-Feb-25 14:34 UTC. Time now 2017-Feb-25 19:02 UTC.
Position N 55°10' E 011°03'.

Length 141 m; draft 8.7 m.

Type: Ship (hazmat cat A). MMSI: 230984000.

Date/timePositionNaut miles runAvg speedWind from/ knotsBaromVisibWave heightAir tempDewpointWater temp
2017-Feb-25 14:34N 55°10' E 011°03'1413.8
2017-Feb-25 13:33N 54°57' E 010°57'1413.8
2017-Feb-25 12:33N 54°43' E 010°53'1414.1
2017-Feb-25 11:34N 54°35' E 011°13'1414.4
2017-Feb-25 10:33N 54°30' E 011°36'1413.8
2017-Feb-25 09:31N 54°27' E 011°60'1111.4
2017-Feb-25 08:33N 54°34' E 012°14'5814.3
2017-Feb-25 04:30N 55°01' E 013°43'1414.3
2017-Feb-25 03:33N 55°06' E 014°05'1514.5
2017-Feb-25 02:33N 55°16' E 014°23'1514.9
2017-Feb-25 01:33N 55°27' E 014°40'1515.0
2017-Feb-25 00:33N 55°35' E 015°03'1515.2
2017-Feb-24 23:33N 55°43' E 015°26'1515.0
2017-Feb-24 22:33N 55°50' E 015°49'1414.4
2017-Feb-24 21:33N 55°57' E 016°11'1414.3
2017-Feb-24 20:33N 56°05' E 016°33'1414.1
2017-Feb-24 19:33N 56°12' E 016°55'  
2017-Feb-21 15:09N 59°59' E 026°19'915.7
2017-Feb-21 14:33N 60°01' E 026°38'4715.1
2017-Feb-21 11:28N 60°09' E 028°10'1212.8
2017-Feb-21 10:33N 60°04' E 028°30'1614.5
2017-Feb-21 09:27N 60°02' E 029°03'1414.5
2017-Feb-21 08:30N 60°01' E 029°30'6 6.8
2017-Feb-21 07:33N 59°60' E 029°42'1 0.7
2017-Feb-21 06:31N 60°00' E 029°43'0 0.0
2017-Feb-20 21:22N 60°00' E 029°43'0 0.0
2017-Feb-20 20:31N 60°00' E 029°43'0 0.0
2017-Feb-20 09:27N 60°00' E 029°43'5 6.0
2017-Feb-20 08:33N 60°01' E 029°32'4 3.7
2017-Feb-20 07:32N 60°01' E 029°25'0 0.1
2017-Feb-20 04:30N 60°01' E 029°24'7 3.7
2017-Feb-20 02:33N 60°02' E 029°10'9 8.8
2017-Feb-20 01:32N 60°02' E 028°52'10 9.8
2017-Feb-20 00:33N 60°02' E 028°33'1010.2
2017-Feb-19 23:33N 60°07' E 028°15'1312.8
2017-Feb-19 22:33N 60°10' E 027°50'1616.2
2017-Feb-19 21:33N 60°03' E 027°21'1916.5
2017-Feb-19 20:25N 59°59' E 026°44'  
2017-Feb-17 16:22N 55°59' E 016°31'1315.7
2017-Feb-17 15:33N 55°53' E 016°11'1615.7
2017-Feb-17 14:33N 55°45' E 015°47'1615.7
2017-Feb-17 13:33N 55°37' E 015°23'1615.6
2017-Feb-17 12:33N 55°30' E 014°58'1615.7
2017-Feb-17 11:33N 55°21' E 014°36'1615.8
2017-Feb-17 10:33N 55°08' E 014°19'1615.9
2017-Feb-17 09:33N 54°58' E 013°57'3316.6
2017-Feb-17 07:33N 54°46' E 013°03'3316.4
2017-Feb-17 05:33N 54°29' E 012°15'2115.4
2017-Feb-17 04:13N 54°27' E 011°40'1217.0
2017-Feb-17 03:30N 54°32' E 011°21'1616.6
2017-Feb-17 02:33N 54°34' E 010°54'1616.3
2017-Feb-17 01:33N 54°31' E 010°27'41 6.6
2017-Feb-16 19:25N 54°10' E 009°26'7 6.6
2017-Feb-16 18:23N 54°05' E 009°19'7 8.2
2017-Feb-16 17:33N 53°59' E 009°16'7 6.6
2017-Feb-16 16:33N 53°54' E 009°09'3 2.7
2017-Feb-16 15:34N 53°52' E 009°05'1514.6
2017-Feb-16 14:33N 53°55' E 008°40'7417.5
2017-Feb-16 10:18N 53°46' E 006°35'8317.4
2017-Feb-16 05:32N 53°09' E 004°31'1717.5
2017-Feb-16 04:33N 52°54' E 004°18'1717.0
2017-Feb-16 03:33N 52°40' E 004°01'1616.4
2017-Feb-16 02:33N 52°25' E 003°52'1616.5
2017-Feb-16 01:34N 52°08' E 003°55'1212.2
2017-Feb-16 00:33N 51°59' E 004°07'1212.0
2017-Feb-15 23:33N 51°53' E 004°24'1 0.9
2017-Feb-15 22:31N 51°53' E 004°25'0 0.0
2017-Feb-15 21:34N 51°53' E 004°25'0 0.0
2017-Feb-15 20:34N 51°53' E 004°25'0 0.0
2017-Feb-15 19:34N 51°53' E 004°25'0 0.0
2017-Feb-15 18:34N 51°53' E 004°25'0 0.0
2017-Feb-15 17:34N 51°53' E 004°25'0 0.0
2017-Feb-15 16:34N 51°53' E 004°25'0 0.0
2017-Feb-15 15:34N 51°53' E 004°25'  

Dump ship's entire track history